Time;durP1;ratioP1;P1;durP2;ratioP2;P2;SDS_P1;SDS_P2;PMS_P1;PMS_P2;Temp;Humidity;BMP_temperature;BMP_pressure;BME280_temperature;BME280_humidity;BME280_pressure;Samples;Min_cycle;Max_cycle;Signal;HPM_P1;HPM_P2
2022/03/03 00:01:43;;;;;;;36.42;16.38;;;;;;;1.36;75.01;94581.34;4939370;29;20046;-84
2022/03/03 00:04:08;;;;;;;31.23;15.80;;;;;;;1.32;78.32;94581.94;4955115;29;20377;-85
2022/03/03 00:06:34;;;;;;;33.72;15.88;;;;;;;1.24;78.22;94588.91;4955072;29;20114;-84
2022/03/03 00:09:00;;;;;;;37.17;16.05;;;;;;;1.23;76.68;94586.53;4939261;29;20035;-84
2022/03/03 00:11:26;;;;;;;38.35;15.70;;;;;;;1.24;78.52;94586.31;4939156;29;20346;-85
2022/03/03 00:13:52;;;;;;;37.38;16.67;;;;;;;1.31;77.12;94582.94;4954980;29;20031;-84
2022/03/03 00:16:19;;;;;;;35.47;16.77;;;;;;;1.39;77.08;94590.44;4955191;29;20043;-84
2022/03/03 00:18:45;;;;;;;37.67;16.48;;;;;;;1.33;80.45;94592.03;4940053;29;20136;-84
2022/03/03 00:21:10;;;;;;;35.38;14.98;;;;;;;1.29;84.39;94595.22;4940231;29;20039;-84
2022/03/03 00:23:36;;;;;;;33.95;16.33;;;;;;;1.34;81.46;94587.69;4940209;29;20070;-84
2022/03/03 00:26:02;;;;;;;36.17;16.92;;;;;;;1.33;77.73;94584.31;4939008;29;20122;-84
2022/03/03 00:28:27;;;;;;;43.70;17.17;;;;;;;1.42;75.34;94579.69;4938784;29;20039;-84
2022/03/03 00:30:53;;;;;;;36.78;15.40;;;;;;;1.52;72.91;94582.66;4938714;29;20094;-85
2022/03/03 00:33:21;;;;;;;36.20;17.38;;;;;;;1.43;74.49;94583.88;4954603;29;20027;-84
2022/03/03 00:35:46;;;;;;;42.28;17.05;;;;;;;1.40;74.81;94587.66;4954346;29;20051;-84
2022/03/03 00:38:12;;;;;;;31.55;15.40;;;;;;;1.45;71.59;94587.06;4954896;29;20043;-84
2022/03/03 00:40:37;;;;;;;37.03;16.25;;;;;;;1.51;70.82;94593.19;4954994;29;20361;-84
2022/03/03 00:43:04;;;;;;;33.72;16.23;;;;;;;1.64;70.02;94597.50;4954341;29;20042;-84
2022/03/03 00:45:30;;;;;;;36.72;16.05;;;;;;;1.59;70.00;94599.94;4938365;29;20032;-84
2022/03/03 00:47:56;;;;;;;34.30;15.18;;;;;;;1.55;69.56;94589.97;4954727;29;20032;-84
2022/03/03 00:50:21;;;;;;;38.33;16.05;;;;;;;1.60;69.40;94591.97;4939480;29;20035;-84
2022/03/03 00:52:47;;;;;;;38.60;16.48;;;;;;;1.55;75.37;94586.63;4939572;29;20083;-84
2022/03/03 00:55:12;;;;;;;38.13;16.60;;;;;;;1.62;75.40;94597.72;4938592;29;20038;-84
2022/03/03 00:57:38;;;;;;;31.45;15.70;;;;;;;1.51;75.61;94583.66;4937990;29;20047;-84
2022/03/03 01:00:05;;;;;;;36.75;15.98;;;;;;;1.60;70.03;94584.22;4954454;29;20123;-84
2022/03/03 01:02:31;;;;;;;43.53;17.65;;;;;;;1.63;70.08;94581.22;4938181;29;20414;-84
2022/03/03 01:04:56;;;;;;;29.85;14.70;;;;;;;1.80;68.28;94578.97;4954232;29;20066;-85
2022/03/03 01:07:21;;;;;;;28.83;14.80;;;;;;;1.87;67.35;94588.47;4954233;29;20031;-84
2022/03/03 01:09:47;;;;;;;31.75;14.95;;;;;;;2.00;66.29;94587.59;4938358;29;20330;-84
2022/03/03 01:12:12;;;;;;;31.35;15.30;;;;;;;1.98;66.68;94577.47;4938075;29;20429;-84
2022/03/03 01:14:38;;;;;;;31.42;14.40;;;;;;;2.05;67.24;94575.66;4939356;29;20113;-85
2022/03/03 01:17:04;;;;;;;30.73;15.15;;;;;;;2.01;68.11;94577.06;4954171;29;20043;-84
2022/03/03 01:19:30;;;;;;;32.50;15.82;;;;;;;1.96;67.68;94571.72;4939293;29;20111;-84
2022/03/03 01:21:56;;;;;;;41.55;17.02;;;;;;;1.84;75.16;94576.75;4939005;29;20027;-85
2022/03/03 01:24:21;;;;;;;30.90;14.88;;;;;;;1.63;81.35;94570.09;4938050;29;20038;-84
2022/03/03 01:26:46;;;;;;;33.22;16.00;;;;;;;1.74;79.83;94574.63;4950675;29;20028;-84
2022/03/03 01:29:12;;;;;;;33.25;15.70;;;;;;;1.62;77.61;94565.94;4920155;29;20039;-84
2022/03/03 01:31:37;;;;;;;33.88;14.85;;;;;;;1.58;80.63;94562.16;4924213;29;20058;-84
2022/03/03 01:34:03;;;;;;;33.75;15.43;;;;;;;1.60;79.22;94566.13;4937874;29;20036;-84
2022/03/03 01:36:29;;;;;;;36.65;15.95;;;;;;;1.79;76.37;94567.03;4954122;29;20393;-84
2022/03/03 01:38:54;;;;;;;34.35;15.20;;;;;;;1.72;75.25;94560.31;4943986;29;20036;-85
2022/03/03 01:41:21;;;;;;;32.83;15.88;;;;;;;1.75;75.07;94552.97;4943991;29;20039;-84
2022/03/03 01:43:46;;;;;;;38.50;16.10;;;;;;;1.72;72.87;94548.19;4934485;29;20035;-84
2022/03/03 01:46:13;;;;;;;35.80;15.40;;;;;;;1.71;71.96;94545.81;4939086;29;20027;-85
2022/03/03 01:48:38;;;;;;;30.63;15.38;;;;;;;1.69;73.72;94549.41;4953870;29;20055;-85
2022/03/03 01:51:04;;;;;;;33.55;16.02;;;;;;;1.71;81.12;94548.41;4953981;29;20035;-85
2022/03/03 01:53:29;;;;;;;36.08;16.55;;;;;;;1.80;76.68;94545.38;4953811;29;20028;-84
2022/03/03 01:55:55;;;;;;;32.72;15.93;;;;;;;1.65;78.57;94534.53;4939264;29;20039;-84
2022/03/03 01:58:21;;;;;;;33.75;15.25;;;;;;;1.61;80.90;94541.88;4938851;29;20054;-84
2022/03/03 02:00:50;;;;;;;33.25;15.50;;;;;;;1.61;83.49;94531.56;4953592;29;20047;-84
2022/03/03 02:03:15;;;;;;;36.35;16.73;;;;;;;1.76;75.60;94533.06;4953879;29;20059;-84
2022/03/03 02:05:41;;;;;;;37.20;18.23;;;;;;;1.85;73.03;94534.41;4937735;29;20074;-84
2022/03/03 02:08:06;;;;;;;36.17;15.52;;;;;;;1.82;72.86;94527.88;4955076;28;20036;-84
2022/03/03 02:10:32;;;;;;;29.42;14.20;;;;;;;1.83;72.46;94519.13;4957213;29;20027;-85
2022/03/03 02:12:58;;;;;;;40.10;16.50;;;;;;;1.84;72.29;94519.91;4957195;29;20034;-84
2022/03/03 02:15:23;;;;;;;30.70;14.95;;;;;;;1.83;71.35;94508.00;4957476;29;20039;-84
2022/03/03 02:17:50;;;;;;;32.80;14.38;;;;;;;1.87;72.78;94511.75;4957020;29;20043;-87
2022/03/03 02:20:26;;;;;;;32.58;15.65;;;;;;;1.86;71.58;94502.41;4941781;29;20353;-84
2022/03/03 02:22:53;;;;;;;34.80;14.57;;;;;;;1.84;70.68;94504.41;4942482;29;20058;-84
2022/03/03 02:25:19;;;;;;;34.25;14.23;;;;;;;1.84;71.00;94497.44;4956960;29;20484;-84
2022/03/03 02:27:45;;;;;;;32.47;14.10;;;;;;;1.83;70.41;94497.66;4942386;29;20094;-84
2022/03/03 02:30:16;;;;;;;31.95;15.07;;;;;;;1.87;74.63;94487.72;4940980;29;20110;-84
2022/03/03 02:32:42;;;;;;;30.65;15.50;;;;;;;1.74;79.11;94489.38;4956800;29;20050;-84
2022/03/03 02:35:08;;;;;;;33.63;13.63;;;;;;;1.73;75.72;94492.16;4941031;29;20042;-84
2022/03/03 02:37:35;;;;;;;34.58;15.50;;;;;;;1.76;74.28;94489.16;4956734;29;20066;-84
2022/03/03 02:40:02;;;;;;;30.67;15.25;;;;;;;1.52;78.37;94491.50;4957199;29;20433;-84
2022/03/03 02:42:28;;;;;;;29.73;14.98;;;;;;;1.47;83.37;94484.34;4941089;29;20035;-84
2022/03/03 02:44:53;;;;;;;33.00;15.05;;;;;;;1.26;87.17;94481.06;4940844;29;20049;-84
2022/03/03 02:47:19;;;;;;;32.00;15.05;;;;;;;1.31;84.55;94474.53;4956598;29;20110;-84
2022/03/03 02:49:44;;;;;;;36.90;15.80;;;;;;;1.28;87.42;94473.13;4940488;29;20032;-84
2022/03/03 02:52:10;;;;;;;32.42;15.35;;;;;;;1.30;90.90;94463.38;4956784;29;20035;-83
2022/03/03 02:54:35;;;;;;;32.03;14.07;;;;;;;1.77;85.35;94473.44;4940726;29;20389;-84
2022/03/03 02:59:45;;;;;;;26.48;13.00;;;;;;;1.50;82.23;94467.66;4954053;29;20043;-84
2022/03/03 03:02:10;;;;;;;29.27;13.25;;;;;;;1.50;81.49;94465.06;4956558;29;20035;-84
2022/03/03 03:04:35;;;;;;;34.25;14.77;;;;;;;1.47;76.14;94463.72;4941447;29;20024;-84
2022/03/03 03:07:01;;;;;;;30.77;14.43;;;;;;;1.40;78.19;94460.34;4956202;29;20032;-84
2022/03/03 03:09:26;;;;;;;32.90;13.80;;;;;;;1.40;78.02;94457.78;4956483;29;20039;-84
2022/03/03 03:11:52;;;;;;;28.48;13.35;;;;;;;1.46;76.94;94453.56;4940274;29;20397;-84
2022/03/03 03:14:18;;;;;;;29.20;13.40;;;;;;;1.45;84.08;94457.97;4956047;29;20167;-84
2022/03/03 03:16:43;;;;;;;27.67;13.88;;;;;;;1.43;80.34;94456.56;4941225;29;20121;-84
2022/03/03 03:19:09;;;;;;;27.35;12.30;;;;;;;1.45;77.34;94449.41;4955420;28;20038;-84
2022/03/03 03:21:34;;;;;;;24.05;10.93;;;;;;;1.52;73.06;94461.28;4955958;29;20039;-84
2022/03/03 03:24:00;;;;;;;24.92;12.18;;;;;;;1.58;72.29;94443.34;4941437;29;20130;-84
2022/03/03 03:26:25;;;;;;;25.60;12.68;;;;;;;1.56;72.11;94456.50;4955910;29;20041;-84
2022/03/03 03:28:51;;;;;;;25.67;11.88;;;;;;;1.47;75.08;94447.41;4956106;29;20040;-84
2022/03/03 03:31:17;;;;;;;24.35;12.35;;;;;;;1.49;73.15;94445.41;4939680;29;20037;-84
2022/03/03 03:33:42;;;;;;;28.95;12.07;;;;;;;1.58;73.11;94444.16;4939945;29;20028;-84
2022/03/03 03:36:08;;;;;;;21.70;11.55;;;;;;;1.64;72.55;94437.38;4956007;29;20043;-84
2022/03/03 03:38:33;;;;;;;24.42;11.55;;;;;;;1.77;79.75;94446.81;4939882;29;20036;-84
2022/03/03 03:40:59;;;;;;;26.08;11.30;;;;;;;1.58;78.88;94439.00;4955699;29;20031;-84
2022/03/03 03:43:25;;;;;;;21.67;10.82;;;;;;;1.69;74.57;94443.50;4955477;29;20042;-84
2022/03/03 03:45:50;;;;;;;25.02;11.95;;;;;;;1.73;72.86;94438.72;4955796;29;20041;-84
2022/03/03 03:48:15;;;;;;;20.70;10.05;;;;;;;1.66;75.66;94438.75;4955418;29;20432;-84
2022/03/03 03:50:41;;;;;;;28.23;12.10;;;;;;;1.52;75.99;94430.28;4939380;29;20438;-84
2022/03/03 03:53:06;;;;;;;30.05;11.07;;;;;;;1.59;73.37;94434.63;4955364;29;20050;-84
2022/03/03 03:55:32;;;;;;;22.98;10.93;;;;;;;1.53;78.70;94437.03;4955337;29;20031;-84
2022/03/03 03:57:57;;;;;;;27.05;11.73;;;;;;;1.44;81.24;94437.50;4940378;29;20430;-84
2022/03/03 04:00:23;;;;;;;22.40;10.52;;;;;;;1.38;84.68;94444.28;4940251;29;20449;-84
2022/03/03 04:02:48;;;;;;;20.73;10.30;;;;;;;1.47;82.35;94439.66;4955165;29;20070;-84
2022/03/03 04:05:14;;;;;;;20.60;9.90;;;;;;;1.35;81.01;94435.16;4955327;29;20035;-84
2022/03/03 04:07:40;;;;;;;23.10;10.35;;;;;;;1.43;78.85;94441.84;4940310;29;20038;-84
2022/03/03 04:10:06;;;;;;;24.73;11.25;;;;;;;1.44;79.71;94437.50;4955066;29;20039;-84
2022/03/03 04:12:31;;;;;;;26.25;10.98;;;;;;;1.39;83.38;94425.22;4940462;29;20067;-84
2022/03/03 04:14:57;;;;;;;24.17;11.52;;;;;;;1.40;79.81;94429.38;4955028;29;20031;-84
2022/03/03 04:17:22;;;;;;;29.70;10.70;;;;;;;1.45;78.11;94432.13;4955141;29;20043;-84
2022/03/03 04:19:48;;;;;;;20.55;9.77;;;;;;;1.63;78.40;94422.88;4939779;29;20075;-85
2022/03/03 04:22:13;;;;;;;24.60;10.77;;;;;;;1.51;76.25;94431.28;4920990;29;20087;-84
2022/03/03 04:24:39;;;;;;;18.42;9.55;;;;;;;1.39;77.21;94423.44;4904060;29;20036;-84
2022/03/03 04:27:04;;;;;;;22.55;10.23;;;;;;;1.24;79.20;94423.69;4922465;29;20505;-85
2022/03/03 04:29:30;;;;;;;25.63;11.93;;;;;;;1.19;83.05;94420.97;4938590;29;20058;-84
2022/03/03 04:31:58;;;;;;;23.63;10.38;;;;;;;1.06;83.47;94416.63;4939152;29;20044;-85
2022/03/03 04:34:25;;;;;;;20.20;9.00;;;;;;;1.05;81.26;94414.28;4954407;29;20039;-84
2022/03/03 04:36:51;;;;;;;20.13;8.70;;;;;;;1.22;80.27;94414.56;4938957;29;20059;-84
2022/03/03 04:39:16;;;;;;;23.50;9.45;;;;;;;1.23;78.12;94414.38;4954570;29;20031;-84
2022/03/03 04:41:42;;;;;;;24.42;9.15;;;;;;;1.08;81.63;94414.66;4939773;29;20086;-84
2022/03/03 04:44:08;;;;;;;21.15;9.20;;;;;;;1.07;76.66;94417.44;4954524;29;20110;-84
2022/03/03 04:46:33;;;;;;;22.80;9.35;;;;;;;1.14;73.82;94415.59;4939650;29;20061;-85
2022/03/03 04:48:59;;;;;;;15.98;7.35;;;;;;;1.23;76.26;94408.44;4938741;29;20031;-84
2022/03/03 04:51:26;;;;;;;15.93;8.07;;;;;;;1.27;75.13;94417.34;4954302;29;20083;-84
2022/03/03 04:53:52;;;;;;;15.18;7.15;;;;;;;1.30;74.86;94410.97;4954623;29;20031;-84
2022/03/03 04:56:19;;;;;;;17.58;8.38;;;;;;;1.39;71.91;94404.56;4939561;29;20102;-84
2022/03/03 04:58:49;;;;;;;15.55;8.10;;;;;;;1.50;73.81;94406.47;4953181;29;20122;-84
2022/03/03 05:01:16;;;;;;;18.90;8.50;;;;;;;1.49;75.02;94402.31;4938533;29;20114;-85
2022/03/03 05:03:41;;;;;;;18.27;8.02;;;;;;;1.49;70.96;94402.31;4938434;29;20039;-84
2022/03/03 05:06:07;;;;;;;19.83;9.48;;;;;;;1.75;75.21;94400.53;4954237;29;20027;-84
2022/03/03 05:08:32;;;;;;;24.83;10.65;;;;;;;1.41;79.38;94403.34;4938539;29;20498;-84
2022/03/03 05:10:58;;;;;;;24.35;11.05;;;;;;;1.49;80.32;94404.91;4938283;29;20032;-84
2022/03/03 05:13:23;;;;;;;24.77;9.85;;;;;;;1.18;83.32;94403.91;4938125;29;20035;-84
2022/03/03 05:15:49;;;;;;;26.00;11.63;;;;;;;1.07;82.22;94410.47;4939596;29;20032;-84
2022/03/03 05:18:14;;;;;;;22.70;10.75;;;;;;;0.98;85.40;94412.50;4939317;29;20027;-84
2022/03/03 05:20:40;;;;;;;23.80;11.35;;;;;;;1.04;80.98;94410.13;4937850;29;20023;-84
2022/03/03 05:23:09;;;;;;;23.75;11.27;;;;;;;1.06;81.46;94405.53;4938006;29;20389;-85
2022/03/03 05:25:34;;;;;;;22.42;11.02;;;;;;;0.99;87.20;94405.56;4937953;29;20447;-85
2022/03/03 05:28:02;;;;;;;22.25;10.27;;;;;;;1.17;84.76;94402.31;4954200;29;20160;-85
2022/03/03 05:30:28;;;;;;;26.98;10.35;;;;;;;1.24;80.47;94407.44;4937964;29;20040;-85
2022/03/03 05:32:53;;;;;;;20.30;9.90;;;;;;;1.27;77.26;94407.78;4938362;29;20044;-84
2022/03/03 05:35:19;;;;;;;19.50;9.70;;;;;;;1.55;76.42;94411.78;4939194;29;20042;-84
2022/03/03 05:37:48;;;;;;;24.70;10.02;;;;;;;1.52;73.68;94407.06;4954154;29;20496;-84
2022/03/03 05:40:13;;;;;;;21.67;9.65;;;;;;;1.64;71.75;94408.97;4937833;29;20130;-84
2022/03/03 05:42:39;;;;;;;27.70;10.98;;;;;;;1.85;69.49;94400.06;4938632;29;20450;-84
2022/03/03 05:45:05;;;;;;;26.15;10.82;;;;;;;1.61;73.61;94407.59;4941725;29;20042;-84
2022/03/03 05:47:33;;;;;;;22.02;10.70;;;;;;;1.68;77.26;94408.34;4926041;29;20042;-84
2022/03/03 05:49:59;;;;;;;25.17;10.30;;;;;;;1.81;76.98;94409.25;4942973;29;20043;-88
2022/03/03 05:52:24;;;;;;;27.25;10.25;;;;;;;1.54;73.02;94412.03;4941929;29;20102;-84
2022/03/03 05:54:50;;;;;;;24.55;11.23;;;;;;;1.38;73.26;94408.13;4941830;29;20170;-84
2022/03/03 05:57:23;;;;;;;24.58;10.43;;;;;;;1.35;71.98;94421.47;4941461;29;20493;-85
2022/03/03 05:59:51;;;;;;;25.55;11.80;;;;;;;1.37;73.28;94411.72;4957152;29;20050;-84
2022/03/03 06:02:18;;;;;;;24.60;10.95;;;;;;;1.44;72.16;94416.84;4942449;29;20027;-84
2022/03/03 06:04:44;;;;;;;22.10;10.20;;;;;;;1.59;72.30;94413.97;4942293;29;20036;-84
2022/03/03 06:07:10;;;;;;;22.80;11.20;;;;;;;1.82;76.48;94421.94;4957510;29;20039;-84
2022/03/03 06:09:36;;;;;;;22.60;11.15;;;;;;;1.74;74.44;94424.00;4957575;29;20043;-84
2022/03/03 06:12:20;;;;;;;22.48;11.07;;;;;;;1.84;73.61;94421.75;4941120;29;20031;-84
2022/03/03 06:14:55;;;;;;;26.13;11.70;;;;;;;1.69;80.80;94425.41;4957018;29;20480;-84
2022/03/03 06:17:27;;;;;;;27.83;12.77;;;;;;;1.55;83.28;94427.28;4925565;29;20031;-84
2022/03/03 06:19:52;;;;;;;23.25;11.80;;;;;;;1.64;83.77;94427.81;4941219;29;20032;-84
2022/03/03 06:22:19;;;;;;;28.20;12.50;;;;;;;1.74;84.43;94426.56;4941224;29;20459;-84
2022/03/03 06:24:45;;;;;;;26.60;12.35;;;;;;;1.77;76.56;94428.72;4956968;29;20058;-84
2022/03/03 06:27:12;;;;;;;24.33;11.18;;;;;;;1.87;79.52;94428.28;4956995;29;20413;-84
2022/03/03 06:29:38;;;;;;;26.60;11.48;;;;;;;2.04;75.38;94423.34;4941123;29;20397;-84
2022/03/03 06:32:05;;;;;;;22.48;11.13;;;;;;;1.79;81.80;94427.53;4956682;29;20039;-84
2022/03/03 06:34:30;;;;;;;21.08;11.32;;;;;;;1.71;78.26;94422.59;4941110;29;20036;-84
2022/03/03 06:36:56;;;;;;;19.27;9.98;;;;;;;1.90;76.66;94433.81;4957018;29;20035;-83
2022/03/03 06:39:21;;;;;;;26.23;10.88;;;;;;;2.18;74.82;94431.81;4940717;29;20063;-83
2022/03/03 06:41:47;;;;;;;25.58;11.77;;;;;;;2.11;80.85;94437.03;4937725;29;20039;-84
2022/03/03 06:44:13;;;;;;;21.50;10.18;;;;;;;2.03;73.61;94440.69;4937738;29;20401;-84
2022/03/03 06:46:38;;;;;;;21.40;10.35;;;;;;;2.05;73.22;94436.09;4922840;29;20091;-83
2022/03/03 06:49:05;;;;;;;21.48;9.98;;;;;;;2.00;75.85;94441.06;4921771;29;20438;-84
2022/03/03 06:51:40;;;;;;;21.88;10.82;;;;;;;1.96;83.33;94447.69;4922632;29;20043;-84
2022/03/03 06:54:06;;;;;;;23.85;11.38;;;;;;;2.38;77.16;94440.16;4936669;29;20426;-83
2022/03/03 06:56:34;;;;;;;28.33;11.07;;;;;;;2.29;75.12;94432.91;4948334;29;20039;-83
2022/03/03 06:59:00;;;;;;;21.40;9.93;;;;;;;2.41;73.86;94438.94;4959792;29;20046;-83
2022/03/03 07:01:27;;;;;;;24.27;9.85;;;;;;;2.34;75.80;94439.00;4961198;28;20133;-84
2022/03/03 07:03:53;;;;;;;27.25;10.55;;;;;;;2.41;75.51;94438.94;4975330;28;20031;-83
2022/03/03 07:06:18;;;;;;;23.75;10.57;;;;;;;2.45;76.59;94444.50;4959718;29;20036;-83
2022/03/03 07:08:45;;;;;;;19.10;9.85;;;;;;;2.59;75.97;94437.38;4975478;28;20114;-83
2022/03/03 07:11:11;;;;;;;19.65;9.90;;;;;;;2.69;76.32;94438.44;4959542;28;20035;-83
2022/03/03 07:13:38;;;;;;;23.42;10.15;;;;;;;3.01;74.22;94437.50;4959619;28;20031;-83
2022/03/03 07:16:23;;;;;;;23.88;10.93;;;;;;;3.18;76.45;94435.13;4943424;29;20070;-83
2022/03/03 07:18:52;;;;;;;24.80;11.65;;;;;;;3.03;72.69;94434.72;4943577;29;20035;-83
2022/03/03 07:21:31;;;;;;;18.08;9.52;;;;;;;3.09;77.35;94436.41;4943340;29;20129;-84
2022/03/03 07:24:14;;;;;;;24.30;10.75;;;;;;;3.33;74.46;94428.75;4975281;28;20031;-83
2022/03/03 07:26:41;;;;;;;20.92;11.10;;;;;;;3.61;72.99;94438.53;4959295;28;20031;-83
2022/03/03 07:29:09;;;;;;;22.38;10.40;;;;;;;3.48;73.29;94433.53;4959323;29;20457;-83
2022/03/03 07:31:40;;;;;;;24.95;10.65;;;;;;;3.53;73.37;94437.03;4959071;29;20448;-83
2022/03/03 07:34:06;;;;;;;27.45;11.23;;;;;;;3.30;70.66;94442.13;4959207;29;20137;-83
2022/03/03 07:36:34;;;;;;;23.95;11.57;;;;;;;3.41;70.57;94443.19;4975272;28;20453;-84
2022/03/03 07:39:06;;;;;;;20.75;10.52;;;;;;;3.65;69.95;94444.84;4958703;28;20038;-83
2022/03/03 07:41:31;;;;;;;23.42;10.82;;;;;;;3.93;70.84;94440.84;4943176;29;20038;-83
2022/03/03 07:43:58;;;;;;;21.80;10.05;;;;;;;4.14;71.02;94438.75;4958737;29;20036;-84
2022/03/03 07:46:25;;;;;;;24.10;10.80;;;;;;;4.34;70.55;94432.41;4975184;28;20039;-83
2022/03/03 07:48:53;;;;;;;19.42;10.38;;;;;;;4.15;70.45;94437.72;4960074;28;20349;-83
2022/03/03 07:51:19;;;;;;;22.73;12.10;;;;;;;4.17;74.34;94435.69;4959086;29;20349;-83
2022/03/03 07:53:45;;;;;;;22.95;11.07;;;;;;;4.22;70.99;94437.63;4942826;29;20027;-84
2022/03/03 07:56:14;;;;;;;21.33;10.63;;;;;;;4.51;70.06;94440.31;4958451;29;20433;-83
2022/03/03 07:58:44;;;;;;;25.13;11.60;;;;;;;4.47;68.36;94445.16;4958461;29;20039;-84
2022/03/03 08:01:10;;;;;;;25.08;11.98;;;;;;;4.83;68.05;94445.13;4958520;29;20097;-83
2022/03/03 08:03:37;;;;;;;25.55;12.05;;;;;;;4.83;69.00;94439.16;4959559;28;20114;-83
2022/03/03 08:06:03;;;;;;;26.25;12.57;;;;;;;5.26;65.21;94443.09;4942441;29;20031;-84
2022/03/03 08:08:30;;;;;;;27.65;13.50;;;;;;;5.33;61.17;94450.75;4958368;29;20042;-84
2022/03/03 08:11:04;;;;;;;23.92;12.90;;;;;;;5.47;59.25;94448.66;4958135;29;20054;-84
2022/03/03 08:13:30;;;;;;;22.15;10.85;;;;;;;5.56;62.35;94447.28;4942414;29;20031;-84
2022/03/03 08:15:56;;;;;;;24.02;12.70;;;;;;;5.28;59.80;94448.06;4958408;29;20069;-84
2022/03/03 08:18:26;;;;;;;27.02;13.02;;;;;;;5.47;60.83;94446.88;4974573;28;20039;-84
2022/03/03 08:20:51;;;;;;;24.45;12.88;;;;;;;5.73;60.96;94443.91;4974406;28;20042;-84
2022/03/03 08:23:17;;;;;;;26.90;13.43;;;;;;;6.05;57.59;94441.63;4974036;28;20039;-83
2022/03/03 08:25:46;;;;;;;27.75;13.40;;;;;;;5.69;56.89;94435.78;4957982;29;20381;-84
2022/03/03 08:28:12;;;;;;;29.15;14.10;;;;;;;5.83;58.27;94438.91;4942319;29;20032;-84
2022/03/03 08:30:37;;;;;;;28.50;13.90;;;;;;;5.62;55.84;94440.38;4957906;29;20435;-84
2022/03/03 08:33:17;;;;;;;36.85;13.23;;;;;;;5.89;56.75;94437.94;4959355;28;20035;-84
2022/03/03 08:35:44;;;;;;;25.38;13.05;;;;;;;5.96;57.43;94434.41;4959063;28;20345;-84
2022/03/03 08:38:32;;;;;;;22.13;12.15;;;;;;;6.33;57.62;94432.16;4957886;29;20039;-84
2022/03/03 08:40:59;;;;;;;27.48;12.25;;;;;;;6.68;55.68;94432.06;4958907;28;20051;-84
2022/03/03 08:43:27;;;;;;;27.17;13.98;;;;;;;6.85;51.55;94432.03;4957939;29;20039;-84
2022/03/03 08:45:53;;;;;;;24.77;12.82;;;;;;;6.46;54.69;94436.22;4959066;28;20326;-84
2022/03/03 08:48:21;;;;;;;26.88;12.27;;;;;;;6.75;57.34;94443.13;4957632;29;20125;-84
2022/03/03 08:50:48;;;;;;;24.88;12.27;;;;;;;6.73;56.82;94440.75;4957502;29;20396;-83
2022/03/03 08:53:14;;;;;;;21.88;12.02;;;;;;;6.05;57.67;94449.41;4959106;28;20344;-84
2022/03/03 08:55:41;;;;;;;28.08;13.27;;;;;;;6.36;56.25;94443.88;4957936;29;20043;-83
2022/03/03 08:58:08;;;;;;;29.17;12.98;;;;;;;6.05;57.76;94448.63;4973564;28;20044;-84
2022/03/03 09:00:34;;;;;;;25.45;12.85;;;;;;;5.90;56.58;94449.16;4941429;29;20121;-84
2022/03/03 09:02:59;;;;;;;28.55;13.50;;;;;;;5.68;53.91;94449.03;4957725;29;20544;-84
2022/03/03 09:05:25;;;;;;;23.92;13.35;;;;;;;5.58;53.94;94447.03;4958943;28;20114;-84
2022/03/03 09:07:50;;;;;;;25.65;12.95;;;;;;;5.44;55.39;94442.13;4958936;28;20081;-84
2022/03/03 09:10:17;;;;;;;27.35;13.82;;;;;;;5.49;56.28;94441.41;4973333;28;20031;-84
2022/03/03 09:12:43;;;;;;;25.63;13.77;;;;;;;5.82;57.95;94439.13;4957607;29;20046;-83
2022/03/03 09:15:10;;;;;;;26.63;13.13;;;;;;;5.59;58.99;94433.00;4973440;28;20035;-84
2022/03/03 09:17:36;;;;;;;31.60;13.82;;;;;;;5.93;58.97;94438.28;4956839;29;20031;-83
2022/03/03 09:20:05;;;;;;;25.90;12.77;;;;;;;6.39;57.34;94434.81;4957145;29;20046;-84
2022/03/03 09:22:31;;;;;;;25.25;12.93;;;;;;;6.58;57.01;94430.91;4957128;29;20348;-83
2022/03/03 09:24:57;;;;;;;25.88;14.07;;;;;;;6.59;56.65;94429.88;4958454;28;20038;-84
2022/03/03 09:27:23;;;;;;;28.60;13.63;;;;;;;6.97;55.40;94422.28;4973258;28;20361;-84
2022/03/03 09:29:48;;;;;;;36.08;14.75;;;;;;;7.27;53.47;94422.88;4958509;28;20042;-84
2022/03/03 09:32:14;;;;;;;41.20;14.63;;;;;;;7.19;54.48;94416.28;4973261;28;20352;-84
2022/03/03 09:34:40;;;;;;;33.38;13.98;;;;;;;7.36;49.57;94421.41;4973572;28;20039;-84
2022/03/03 09:37:05;;;;;;;25.55;12.80;;;;;;;7.69;48.35;94419.63;4957348;29;20054;-84
2022/03/03 09:39:31;;;;;;;25.90;12.73;;;;;;;8.18;46.83;94415.34;4973188;28;20042;-84
2022/03/03 09:41:57;;;;;;;27.35;13.63;;;;;;;7.36;47.90;94418.81;4973027;28;20027;-84
2022/03/03 09:44:24;;;;;;;30.15;14.05;;;;;;;7.41;48.89;94426.66;4957041;29;20027;-84
2022/03/03 09:46:49;;;;;;;26.73;14.05;;;;;;;7.11;47.58;94425.31;4957122;29;20039;-84
2022/03/03 09:49:16;;;;;;;24.23;12.98;;;;;;;7.79;48.86;94424.16;4958227;28;20034;-83
2022/03/03 09:51:41;;;;;;;28.35;13.25;;;;;;;7.96;50.03;94416.22;4941162;29;20035;-84
2022/03/03 09:54:07;;;;;;;29.65;12.35;;;;;;;7.55;45.88;94418.47;4973148;28;20036;-84
2022/03/03 09:56:33;;;;;;;26.80;12.82;;;;;;;8.03;45.57;94414.19;4957014;29;20041;-84
2022/03/03 09:58:58;;;;;;;24.98;12.80;;;;;;;8.37;47.13;94414.94;4973336;28;20094;-84
2022/03/03 10:01:28;;;;;;;25.25;13.93;;;;;;;8.01;48.31;94421.47;4956780;29;20113;-84
2022/03/03 10:03:54;;;;;;;30.67;12.98;;;;;;;8.75;44.29;94415.69;4957178;29;20452;-84
2022/03/03 10:06:22;;;;;;;27.58;13.18;;;;;;;7.96;45.98;94404.97;4956865;29;20042;-84
2022/03/03 10:08:50;;;;;;;25.60;12.70;;;;;;;8.46;45.28;94410.78;4957177;29;20114;-84
2022/03/03 10:11:15;;;;;;;25.63;13.75;;;;;;;8.90;46.25;94407.13;4957037;29;20505;-84
2022/03/03 10:13:46;;;;;;;28.10;12.77;;;;;;;8.83;44.99;94402.13;4956816;29;20102;-84
2022/03/03 10:16:23;;;;;;;25.23;12.77;;;;;;;8.97;42.86;94404.28;4973166;28;20039;-84
2022/03/03 10:18:59;;;;;;;30.02;14.15;;;;;;;8.83;43.66;94398.75;4957202;29;20031;-84
2022/03/03 10:21:29;;;;;;;27.08;13.68;;;;;;;8.58;42.58;94394.97;4956532;29;20031;-84
2022/03/03 10:23:55;;;;;;;25.98;13.35;;;;;;;8.75;40.37;94397.38;4956898;29;20134;-84
2022/03/03 10:26:33;;;;;;;30.27;13.85;;;;;;;8.74;40.58;94386.16;4956692;29;20037;-84
2022/03/03 10:28:59;;;;;;;27.77;13.05;;;;;;;8.85;43.69;94391.44;4958244;28;20121;-84
2022/03/03 10:31:25;;;;;;;28.13;14.73;;;;;;;8.30;41.48;94387.19;4959626;29;20047;-84
2022/03/03 10:33:51;;;;;;;28.85;13.85;;;;;;;8.65;40.26;94384.31;4976054;28;20034;-84
2022/03/03 10:36:19;;;;;;;25.80;13.32;;;;;;;8.31;40.14;94383.56;4960259;29;20031;-84
2022/03/03 10:38:57;;;;;;;28.73;12.43;;;;;;;8.81;40.94;94382.53;4959971;29;20035;-84
2022/03/03 10:41:29;;;;;;;25.75;12.27;;;;;;;9.00;41.23;94381.06;4976006;28;20031;-84
2022/03/03 10:43:55;;;;;;;24.75;13.13;;;;;;;8.60;43.19;94378.00;4960925;29;20031;-84
2022/03/03 10:46:20;;;;;;;23.85;12.50;;;;;;;8.21;44.13;94370.47;4960111;29;20090;-84
2022/03/03 10:48:45;;;;;;;27.20;13.73;;;;;;;7.74;42.88;94364.91;4975907;28;20134;-84
2022/03/03 10:51:14;;;;;;;37.45;14.73;;;;;;;8.07;42.72;94360.47;4959870;29;20440;-84
2022/03/03 10:53:42;;;;;;;30.48;14.23;;;;;;;8.28;42.50;94357.97;4960217;28;20027;-84
2022/03/03 10:56:19;;;;;;;27.33;14.43;;;;;;;8.75;42.24;94353.78;4959909;29;20027;-84
2022/03/03 10:58:51;;;;;;;27.92;15.30;;;;;;;9.33;45.70;94355.50;4975099;28;20038;-84
2022/03/03 11:01:19;;;;;;;29.98;15.45;;;;;;;9.60;43.68;94345.84;4960693;28;20028;-84
2022/03/03 11:03:51;;;;;;;30.10;14.65;;;;;;;9.95;43.77;94340.88;4975886;28;20504;-84
2022/03/03 11:06:24;;;;;;;31.90;16.45;;;;;;;9.38;40.76;94346.88;4974825;28;20030;-84
2022/03/03 11:08:52;;;;;;;33.38;16.70;;;;;;;9.33;44.02;94346.91;4960959;28;20034;-84
2022/03/03 11:11:19;;;;;;;29.48;14.52;;;;;;;9.28;41.46;94339.81;4960459;28;20050;-84
2022/03/03 11:13:47;;;;;;;30.58;15.57;;;;;;;9.10;43.97;94345.50;4943813;29;20030;-84
2022/03/03 11:16:14;;;;;;;33.40;16.30;;;;;;;9.07;45.23;94341.59;4975142;28;20353;-84
2022/03/03 11:18:40;;;;;;;46.38;17.88;;;;;;;8.95;45.29;94343.66;4959572;29;20033;-84
2022/03/03 11:21:06;;;;;;;29.35;14.80;;;;;;;9.18;44.29;94337.97;4959355;29;20350;-84
2022/03/03 11:23:47;;;;;;;32.17;16.73;;;;;;;9.07;41.50;94339.00;4943311;29;20432;-84
2022/03/03 11:26:34;;;;;;;35.50;17.67;;;;;;;8.16;41.61;94329.44;4959086;29;20029;-84
2022/03/03 11:29:12;;;;;;;35.17;15.93;;;;;;;8.18;41.48;94326.59;4959300;29;20042;-83